createdAt,value
2023-03-23T15:58:31.163Z,97974.03
2023-03-23T16:01:06.181Z,97972.78
2023-03-23T16:03:38.484Z,97976.45
2023-03-23T16:06:10.851Z,97981.31
2023-03-23T16:08:41.366Z,97978.20
2023-03-23T16:11:28.941Z,97974.98
2023-03-23T16:13:58.688Z,97976.11
2023-03-23T16:16:29.248Z,97974.27
2023-03-23T16:18:57.909Z,97973.66
2023-03-23T16:21:26.820Z,97979.46
2023-03-23T16:23:57.937Z,97981.29
2023-03-23T16:26:26.765Z,97984.80
2023-03-23T16:29:02.909Z,97992.54
2023-03-23T16:31:39.798Z,97988.96
2023-03-23T16:34:09.196Z,97984.83
2023-03-23T16:36:37.917Z,97993.24
2023-03-23T16:39:07.136Z,97995.93
2023-03-23T16:41:35.782Z,97994.36
2023-03-23T16:44:04.677Z,97997.11
2023-03-23T16:46:43.550Z,98000.88
2023-03-23T16:49:21.730Z,98005.15
2023-03-23T16:51:50.602Z,98006.33
2023-03-23T16:54:19.117Z,98009.40
2023-03-23T16:56:49.371Z,98013.02
2023-03-23T16:59:18.998Z,98011.21
2023-03-23T17:01:47.596Z,98009.56
2023-03-23T17:04:16.418Z,98010.90
2023-03-23T17:06:46.420Z,98019.23
2023-03-23T17:09:15.005Z,98022.49
2023-03-23T17:11:43.574Z,98020.88
2023-03-23T17:14:12.841Z,98020.75
2023-03-23T17:16:41.383Z,98018.54
2023-03-23T17:19:10.013Z,98021.73
2023-03-23T17:21:39.432Z,98018.80
2023-03-23T17:24:08.973Z,98022.02
2023-03-23T17:26:37.712Z,98024.73
2023-03-23T17:29:06.967Z,98017.63
2023-03-23T17:31:35.639Z,98024.27
2023-03-23T17:34:04.477Z,98030.61
2023-03-23T17:36:34.169Z,98028.73
2023-03-23T17:39:03.540Z,98030.55
2023-03-23T17:41:32.644Z,98034.80
2023-03-23T17:44:02.184Z,98032.09
2023-03-23T17:46:30.748Z,98038.39
2023-03-23T17:48:59.371Z,98036.32
2023-03-23T17:51:28.937Z,98041.95
2023-03-23T17:53:58.490Z,98045.30
2023-03-23T17:56:27.209Z,98041.30
2023-03-23T17:58:56.290Z,98043.73
2023-03-23T18:01:50.730Z,98047.77
2023-03-23T18:04:35.590Z,98056.34
2023-03-23T18:07:32.294Z,98058.64
2023-03-23T18:10:19.517Z,98054.29
2023-03-23T18:13:16.123Z,98046.09
2023-03-23T18:16:12.921Z,98049.58
2023-03-23T18:19:02.967Z,98055.21
2023-03-23T18:21:53.978Z,98053.85
2023-03-23T18:24:47.970Z,98052.67
2023-03-23T18:27:47.960Z,98060.22
2023-03-23T18:30:40.489Z,98068.10
2023-03-23T18:33:37.102Z,98070.21
2023-03-23T18:36:29.320Z,98072.00
2023-03-23T18:39:52.910Z,98080.23
2023-03-23T18:42:37.161Z,98084.64
2023-03-23T18:45:06.989Z,98084.70
2023-03-23T18:47:37.980Z,98086.30
2023-03-23T18:50:10.570Z,98085.82
2023-03-23T18:52:39.437Z,98084.98
2023-03-23T18:55:09.451Z,98082.91
2023-03-23T18:57:40.743Z,98082.94
2023-03-23T19:00:10.325Z,98081.88
2023-03-23T19:02:40.327Z,98075.40
2023-03-23T19:05:10.356Z,98069.65
2023-03-23T19:07:39.864Z,98066.00
2023-03-23T19:10:09.659Z,98064.63
2023-03-23T19:12:38.527Z,98065.00
2023-03-23T19:15:08.039Z,98073.25
2023-03-23T19:17:37.713Z,98078.02
2023-03-23T19:20:14.529Z,98083.45
2023-03-23T19:22:48.460Z,98090.58
2023-03-23T19:25:18.107Z,98092.25
2023-03-23T19:28:27.477Z,98091.67
2023-03-23T19:30:37.085Z,98092.49
2023-03-23T19:33:05.721Z,98090.55
2023-03-23T19:35:34.335Z,98090.36
2023-03-23T19:38:03.564Z,98094.38
2023-03-23T19:40:40.496Z,98092.11
2023-03-23T19:43:11.481Z,98091.06
2023-03-23T19:45:42.012Z,98093.33
2023-03-23T19:48:10.739Z,98095.41
2023-03-23T19:50:40.880Z,98094.05
2023-03-23T19:53:10.110Z,98095.52
2023-03-23T19:55:38.824Z,98096.98
2023-03-23T19:58:10.403Z,98099.48
2023-03-23T20:00:40.634Z,98101.27
2023-03-23T20:03:10.737Z,98104.48
2023-03-23T20:05:40.719Z,98104.92
2023-03-23T20:08:10.201Z,98105.17
2023-03-23T20:10:41.599Z,98104.93
2023-03-23T20:13:11.799Z,98100.99
2023-03-23T20:15:40.951Z,98100.20
2023-03-23T20:18:10.783Z,98102.91
2023-03-23T20:20:39.601Z,98105.15
2023-03-23T20:23:09.005Z,98108.02
2023-03-23T20:25:38.262Z,98109.84
2023-03-23T20:28:07.193Z,98109.70
2023-03-23T20:30:36.492Z,98115.53
2023-03-23T20:33:05.630Z,98115.36
2023-03-23T20:35:34.094Z,98111.19
2023-03-23T20:38:03.294Z,98106.70
2023-03-23T20:40:32.174Z,98105.19
2023-03-23T20:43:01.558Z,98103.16
2023-03-23T20:45:30.730Z,98097.44
2023-03-23T20:48:02.559Z,98099.73
2023-03-23T20:50:31.761Z,98101.33
2023-03-23T20:53:00.527Z,98099.79
2023-03-23T20:55:29.957Z,98102.41
2023-03-23T20:57:58.765Z,98104.34
2023-03-23T21:00:27.656Z,98101.91
2023-03-23T21:02:56.563Z,98104.39
2023-03-23T21:05:25.483Z,98106.33
2023-03-23T21:07:55.990Z,98106.38
2023-03-23T21:10:26.249Z,98103.82
2023-03-23T21:12:55.407Z,98108.90
2023-03-23T21:15:24.017Z,98111.71
2023-03-23T21:17:53.080Z,98116.81
2023-03-23T21:20:24.050Z,98115.46
2023-03-23T21:22:52.960Z,98116.74
2023-03-23T21:25:22.453Z,98118.36
2023-03-23T21:28:05.121Z,98117.17
2023-03-23T21:30:33.804Z,98116.34
2023-03-23T21:33:02.390Z,98124.77
2023-03-23T21:35:31.291Z,98127.42
2023-03-23T21:38:00.327Z,98123.65
2023-03-23T21:40:28.798Z,98121.27
2023-03-23T21:42:57.839Z,98127.14
2023-03-23T21:45:27.847Z,98126.02
2023-03-23T21:47:57.311Z,98122.11
2023-03-23T21:50:25.922Z,98120.30
2023-03-23T21:52:54.495Z,98117.27
2023-03-23T21:55:23.397Z,98117.15
2023-03-23T21:57:52.997Z,98118.02
2023-03-23T22:00:21.942Z,98118.71
2023-03-23T22:02:51.952Z,98115.92
2023-03-23T22:05:21.828Z,98114.98
2023-03-23T22:07:51.743Z,98117.56
2023-03-23T22:10:21.256Z,98117.53
2023-03-23T22:12:53.749Z,98121.13
2023-03-23T22:15:28.121Z,98119.67
2023-03-23T22:17:57.724Z,98115.50
2023-03-23T22:20:27.066Z,98115.73
2023-03-23T22:22:56.046Z,98117.19
2023-03-23T22:25:24.980Z,98115.84
2023-03-23T22:27:55.665Z,98115.86
2023-03-23T22:30:24.948Z,98115.71
2023-03-23T22:32:53.822Z,98115.36
2023-03-23T22:35:23.002Z,98115.15
2023-03-23T22:37:51.918Z,98112.98
2023-03-23T22:40:24.209Z,98110.33
2023-03-23T22:42:53.170Z,98105.63
2023-03-23T22:45:23.735Z,98100.95
2023-03-23T22:47:52.221Z,98103.38
2023-03-23T22:50:22.268Z,98100.06
2023-03-23T22:52:51.180Z,98099.85
2023-03-23T22:55:20.286Z,98097.94
2023-03-23T22:57:49.158Z,98096.02
2023-03-23T23:00:18.946Z,98094.97
2023-03-23T23:02:47.468Z,98090.77
2023-03-23T23:05:17.159Z,98091.98
2023-03-23T23:07:46.039Z,98089.93
2023-03-23T23:10:14.464Z,98092.96
2023-03-23T23:12:43.212Z,98094.53
2023-03-23T23:15:15.029Z,98091.62
2023-03-23T23:17:43.910Z,98087.65
2023-03-23T23:20:13.462Z,98086.82
2023-03-23T23:22:43.746Z,98088.35
2023-03-23T23:25:14.734Z,98087.08
2023-03-23T23:27:43.246Z,98085.97
2023-03-23T23:30:12.837Z,98089.08
2023-03-23T23:32:43.274Z,98085.05
2023-03-23T23:35:13.173Z,98087.48
2023-03-23T23:37:41.665Z,98082.95
2023-03-23T23:40:11.237Z,98078.03
2023-03-23T23:42:39.784Z,98075.37
2023-03-23T23:45:10.577Z,98069.06
2023-03-23T23:47:41.125Z,98065.38
2023-03-23T23:50:10.927Z,98062.61
2023-03-23T23:52:40.965Z,98061.62
2023-03-23T23:55:12.812Z,98067.53
2023-03-23T23:57:42.242Z,98064.33
